sensor_id;sensor_type;location;lat;lon;timestamp;P1;durP1;ratioP1;P2;durP2;ratioP2
20611;SDS011;10465;42.686;23.364;2022-09-21T00:00:51;8.15;;;4.47;;
20611;SDS011;10465;42.686;23.364;2022-09-21T00:03:17;5.82;;;4.68;;
20611;SDS011;10465;42.686;23.364;2022-09-21T00:05:42;6.95;;;5.28;;
20611;SDS011;10465;42.686;23.364;2022-09-21T00:08:09;6.35;;;5.00;;
20611;SDS011;10465;42.686;23.364;2022-09-21T00:10:37;6.03;;;4.65;;
20611;SDS011;10465;42.686;23.364;2022-09-21T00:13:03;6.50;;;4.47;;
20611;SDS011;10465;42.686;23.364;2022-09-21T00:15:29;6.50;;;4.85;;
20611;SDS011;10465;42.686;23.364;2022-09-21T00:17:55;5.47;;;4.35;;
20611;SDS011;10465;42.686;23.364;2022-09-21T00:20:22;7.85;;;4.47;;
20611;SDS011;10465;42.686;23.364;2022-09-21T00:22:49;6.05;;;4.30;;
20611;SDS011;10465;42.686;23.364;2022-09-21T00:25:15;5.35;;;4.45;;
20611;SDS011;10465;42.686;23.364;2022-09-21T00:27:41;5.88;;;5.20;;
20611;SDS011;10465;42.686;23.364;2022-09-21T00:30:07;5.75;;;4.43;;
20611;SDS011;10465;42.686;23.364;2022-09-21T00:32:34;8.15;;;4.82;;
20611;SDS011;10465;42.686;23.364;2022-09-21T00:35:02;5.05;;;4.35;;
20611;SDS011;10465;42.686;23.364;2022-09-21T00:37:29;6.80;;;4.50;;
20611;SDS011;10465;42.686;23.364;2022-09-21T00:39:55;6.03;;;4.13;;
20611;SDS011;10465;42.686;23.364;2022-09-21T00:42:38;6.22;;;4.50;;
20611;SDS011;10465;42.686;23.364;2022-09-21T00:45:04;7.20;;;4.60;;
20611;SDS011;10465;42.686;23.364;2022-09-21T00:47:40;4.85;;;4.35;;
20611;SDS011;10465;42.686;23.364;2022-09-21T00:50:08;6.50;;;4.50;;
20611;SDS011;10465;42.686;23.364;2022-09-21T00:52:37;6.38;;;4.15;;
20611;SDS011;10465;42.686;23.364;2022-09-21T00:55:14;4.65;;;3.95;;
20611;SDS011;10465;42.686;23.364;2022-09-21T00:57:43;4.10;;;3.55;;
20611;SDS011;10465;42.686;23.364;2022-09-21T01:00:11;4.70;;;4.05;;
20611;SDS011;10465;42.686;23.364;2022-09-21T01:02:38;5.72;;;4.65;;
20611;SDS011;10465;42.686;23.364;2022-09-21T01:05:05;4.43;;;3.90;;
20611;SDS011;10465;42.686;23.364;2022-09-21T01:07:33;6.35;;;4.43;;
20611;SDS011;10465;42.686;23.364;2022-09-21T01:10:03;5.15;;;3.85;;
20611;SDS011;10465;42.686;23.364;2022-09-21T01:18:07;5.15;;;3.83;;
20611;SDS011;10465;42.686;23.364;2022-09-21T01:29:42;4.45;;;3.92;;
20611;SDS011;10465;42.686;23.364;2022-09-21T01:32:15;5.30;;;3.63;;
20611;SDS011;10465;42.686;23.364;2022-09-21T01:34:49;6.93;;;3.55;;
20611;SDS011;10465;42.686;23.364;2022-09-21T01:40:20;5.90;;;3.70;;
20611;SDS011;10465;42.686;23.364;2022-09-21T01:42:50;4.00;;;3.60;;
20611;SDS011;10465;42.686;23.364;2022-09-21T01:45:20;3.72;;;3.42;;
20611;SDS011;10465;42.686;23.364;2022-09-21T01:47:50;3.90;;;3.50;;
20611;SDS011;10465;42.686;23.364;2022-09-21T01:50:19;3.63;;;3.03;;
20611;SDS011;10465;42.686;23.364;2022-09-21T01:52:50;3.95;;;3.50;;
20611;SDS011;10465;42.686;23.364;2022-09-21T01:55:22;3.88;;;3.20;;
20611;SDS011;10465;42.686;23.364;2022-09-21T02:00:26;4.65;;;4.07;;
20611;SDS011;10465;42.686;23.364;2022-09-21T02:02:58;4.05;;;3.63;;
20611;SDS011;10465;42.686;23.364;2022-09-21T02:05:35;4.38;;;3.63;;
20611;SDS011;10465;42.686;23.364;2022-09-21T02:08:01;3.92;;;3.42;;
20611;SDS011;10465;42.686;23.364;2022-09-21T02:10:41;6.05;;;4.28;;
20611;SDS011;10465;42.686;23.364;2022-09-21T02:13:11;5.25;;;3.83;;
20611;SDS011;10465;42.686;23.364;2022-09-21T02:18:15;4.97;;;3.85;;
20611;SDS011;10465;42.686;23.364;2022-09-21T02:21:04;4.85;;;3.70;;
20611;SDS011;10465;42.686;23.364;2022-09-21T02:23:49;4.45;;;3.90;;
20611;SDS011;10465;42.686;23.364;2022-09-21T02:26:26;4.68;;;3.85;;
20611;SDS011;10465;42.686;23.364;2022-09-21T02:31:36;7.35;;;3.70;;
20611;SDS011;10465;42.686;23.364;2022-09-21T02:34:15;4.90;;;3.58;;
20611;SDS011;10465;42.686;23.364;2022-09-21T02:36:50;3.47;;;3.15;;
20611;SDS011;10465;42.686;23.364;2022-09-21T02:39:32;5.05;;;2.97;;
20611;SDS011;10465;42.686;23.364;2022-09-21T02:42:09;2.45;;;2.25;;
20611;SDS011;10465;42.686;23.364;2022-09-21T02:44:40;3.35;;;2.83;;
20611;SDS011;10465;42.686;23.364;2022-09-21T02:47:25;3.28;;;2.97;;
20611;SDS011;10465;42.686;23.364;2022-09-21T02:49:57;2.90;;;2.53;;
20611;SDS011;10465;42.686;23.364;2022-09-21T02:52:27;3.00;;;2.58;;
20611;SDS011;10465;42.686;23.364;2022-09-21T02:54:54;2.58;;;2.38;;
20611;SDS011;10465;42.686;23.364;2022-09-21T02:57:21;4.30;;;3.00;;
20611;SDS011;10465;42.686;23.364;2022-09-21T02:59:48;4.82;;;3.00;;
20611;SDS011;10465;42.686;23.364;2022-09-21T03:02:15;4.75;;;3.10;;
20611;SDS011;10465;42.686;23.364;2022-09-21T03:04:41;5.28;;;2.95;;
20611;SDS011;10465;42.686;23.364;2022-09-21T03:07:12;2.78;;;2.58;;
20611;SDS011;10465;42.686;23.364;2022-09-21T03:09:38;5.30;;;2.85;;
20611;SDS011;10465;42.686;23.364;2022-09-21T03:12:04;2.88;;;2.55;;
20611;SDS011;10465;42.686;23.364;2022-09-21T03:14:29;3.75;;;2.70;;
20611;SDS011;10465;42.686;23.364;2022-09-21T03:16:57;3.75;;;2.42;;
20611;SDS011;10465;42.686;23.364;2022-09-21T03:19:23;3.97;;;2.50;;
20611;SDS011;10465;42.686;23.364;2022-09-21T03:21:49;5.03;;;2.58;;
20611;SDS011;10465;42.686;23.364;2022-09-21T03:24:15;4.30;;;2.90;;
20611;SDS011;10465;42.686;23.364;2022-09-21T03:27:01;3.45;;;2.95;;
20611;SDS011;10465;42.686;23.364;2022-09-21T03:29:27;3.00;;;2.65;;
20611;SDS011;10465;42.686;23.364;2022-09-21T03:31:52;3.53;;;2.95;;
20611;SDS011;10465;42.686;23.364;2022-09-21T03:34:18;5.88;;;3.78;;
20611;SDS011;10465;42.686;23.364;2022-09-21T03:36:44;3.63;;;3.20;;
20611;SDS011;10465;42.686;23.364;2022-09-21T03:39:10;3.53;;;2.63;;
20611;SDS011;10465;42.686;23.364;2022-09-21T03:41:35;4.32;;;2.95;;
20611;SDS011;10465;42.686;23.364;2022-09-21T03:44:01;3.90;;;3.13;;
20611;SDS011;10465;42.686;23.364;2022-09-21T03:46:26;4.28;;;3.08;;
20611;SDS011;10465;42.686;23.364;2022-09-21T03:48:52;4.72;;;3.50;;
20611;SDS011;10465;42.686;23.364;2022-09-21T03:51:18;4.28;;;2.90;;
20611;SDS011;10465;42.686;23.364;2022-09-21T03:53:43;4.70;;;3.25;;
20611;SDS011;10465;42.686;23.364;2022-09-21T03:56:09;3.55;;;3.20;;
20611;SDS011;10465;42.686;23.364;2022-09-21T03:58:35;4.25;;;3.55;;
20611;SDS011;10465;42.686;23.364;2022-09-21T04:01:01;5.90;;;3.42;;
20611;SDS011;10465;42.686;23.364;2022-09-21T04:03:27;3.60;;;3.28;;
20611;SDS011;10465;42.686;23.364;2022-09-21T04:05:53;3.00;;;2.60;;
20611;SDS011;10465;42.686;23.364;2022-09-21T04:08:19;4.47;;;3.30;;
20611;SDS011;10465;42.686;23.364;2022-09-21T04:10:44;4.40;;;3.40;;
20611;SDS011;10465;42.686;23.364;2022-09-21T04:13:10;5.18;;;3.67;;
20611;SDS011;10465;42.686;23.364;2022-09-21T04:15:37;6.93;;;3.90;;
20611;SDS011;10465;42.686;23.364;2022-09-21T04:18:03;8.95;;;3.92;;
20611;SDS011;10465;42.686;23.364;2022-09-21T04:20:30;8.32;;;4.22;;
20611;SDS011;10465;42.686;23.364;2022-09-21T04:22:56;8.00;;;4.32;;
20611;SDS011;10465;42.686;23.364;2022-09-21T04:25:21;5.80;;;4.10;;
20611;SDS011;10465;42.686;23.364;2022-09-21T04:27:47;8.00;;;4.30;;
20611;SDS011;10465;42.686;23.364;2022-09-21T04:30:13;5.63;;;4.20;;
20611;SDS011;10465;42.686;23.364;2022-09-21T04:32:39;7.50;;;5.00;;
20611;SDS011;10465;42.686;23.364;2022-09-21T04:35:05;6.65;;;5.03;;
20611;SDS011;10465;42.686;23.364;2022-09-21T04:37:31;6.82;;;4.68;;
20611;SDS011;10465;42.686;23.364;2022-09-21T04:39:56;7.72;;;5.13;;
20611;SDS011;10465;42.686;23.364;2022-09-21T04:42:22;6.75;;;5.40;;
20611;SDS011;10465;42.686;23.364;2022-09-21T04:44:48;6.40;;;5.22;;
20611;SDS011;10465;42.686;23.364;2022-09-21T04:47:13;7.68;;;5.63;;
20611;SDS011;10465;42.686;23.364;2022-09-21T04:49:39;10.05;;;5.38;;
20611;SDS011;10465;42.686;23.364;2022-09-21T04:52:04;7.72;;;5.20;;
20611;SDS011;10465;42.686;23.364;2022-09-21T04:54:30;9.45;;;5.07;;
20611;SDS011;10465;42.686;23.364;2022-09-21T04:56:55;9.98;;;4.88;;
20611;SDS011;10465;42.686;23.364;2022-09-21T04:59:21;8.35;;;4.95;;
20611;SDS011;10465;42.686;23.364;2022-09-21T05:01:47;8.63;;;5.82;;
20611;SDS011;10465;42.686;23.364;2022-09-21T05:04:12;10.35;;;6.00;;
20611;SDS011;10465;42.686;23.364;2022-09-21T05:06:37;11.55;;;6.88;;
20611;SDS011;10465;42.686;23.364;2022-09-21T05:09:03;13.07;;;8.48;;
20611;SDS011;10465;42.686;23.364;2022-09-21T05:11:47;15.77;;;9.73;;
20611;SDS011;10465;42.686;23.364;2022-09-21T05:14:13;15.82;;;10.43;;
20611;SDS011;10465;42.686;23.364;2022-09-21T05:16:38;15.95;;;9.25;;
20611;SDS011;10465;42.686;23.364;2022-09-21T05:19:04;12.98;;;8.05;;
20611;SDS011;10465;42.686;23.364;2022-09-21T05:21:29;12.10;;;8.00;;
20611;SDS011;10465;42.686;23.364;2022-09-21T05:23:56;10.60;;;6.85;;
20611;SDS011;10465;42.686;23.364;2022-09-21T05:26:21;9.35;;;8.35;;
20611;SDS011;10465;42.686;23.364;2022-09-21T05:28:47;11.23;;;6.40;;
20611;SDS011;10465;42.686;23.364;2022-09-21T05:39:04;13.32;;;6.15;;
20611;SDS011;10465;42.686;23.364;2022-09-21T05:41:31;12.80;;;9.07;;
20611;SDS011;10465;42.686;23.364;2022-09-21T05:43:56;17.20;;;9.32;;
20611;SDS011;10465;42.686;23.364;2022-09-21T05:48:53;18.63;;;9.80;;
20611;SDS011;10465;42.686;23.364;2022-09-21T05:53:56;13.13;;;8.50;;
20611;SDS011;10465;42.686;23.364;2022-09-21T05:56:56;10.95;;;7.43;;
20611;SDS011;10465;42.686;23.364;2022-09-21T05:59:47;10.80;;;6.40;;
20611;SDS011;10465;42.686;23.364;2022-09-21T06:05:15;9.57;;;5.93;;
20611;SDS011;10465;42.686;23.364;2022-09-21T06:07:40;6.97;;;5.15;;
20611;SDS011;10465;42.686;23.364;2022-09-21T06:10:07;11.90;;;6.03;;
20611;SDS011;10465;42.686;23.364;2022-09-21T06:12:35;8.70;;;5.85;;
20611;SDS011;10465;42.686;23.364;2022-09-21T06:15:01;9.52;;;6.05;;
20611;SDS011;10465;42.686;23.364;2022-09-21T06:17:26;8.88;;;6.03;;
20611;SDS011;10465;42.686;23.364;2022-09-21T06:19:52;9.35;;;5.78;;
20611;SDS011;10465;42.686;23.364;2022-09-21T06:22:18;9.00;;;6.03;;
20611;SDS011;10465;42.686;23.364;2022-09-21T06:24:43;11.68;;;6.00;;
20611;SDS011;10465;42.686;23.364;2022-09-21T06:27:09;8.10;;;4.97;;
20611;SDS011;10465;42.686;23.364;2022-09-21T06:29:35;9.68;;;5.50;;
20611;SDS011;10465;42.686;23.364;2022-09-21T06:32:01;14.57;;;5.25;;
20611;SDS011;10465;42.686;23.364;2022-09-21T06:34:27;12.40;;;5.80;;
20611;SDS011;10465;42.686;23.364;2022-09-21T06:36:52;15.15;;;5.28;;
20611;SDS011;10465;42.686;23.364;2022-09-21T06:39:18;9.30;;;4.47;;
20611;SDS011;10465;42.686;23.364;2022-09-21T06:41:43;7.22;;;4.28;;
20611;SDS011;10465;42.686;23.364;2022-09-21T06:44:09;13.15;;;4.40;;
20611;SDS011;10465;42.686;23.364;2022-09-21T06:46:34;6.00;;;4.28;;
20611;SDS011;10465;42.686;23.364;2022-09-21T06:49:00;5.60;;;3.92;;
20611;SDS011;10465;42.686;23.364;2022-09-21T06:51:25;6.72;;;4.45;;
20611;SDS011;10465;42.686;23.364;2022-09-21T06:53:54;4.88;;;3.88;;
20611;SDS011;10465;42.686;23.364;2022-09-21T06:56:21;4.35;;;3.03;;
20611;SDS011;10465;42.686;23.364;2022-09-21T06:58:46;6.20;;;3.20;;
20611;SDS011;10465;42.686;23.364;2022-09-21T07:01:12;6.53;;;3.38;;
20611;SDS011;10465;42.686;23.364;2022-09-21T07:03:39;4.32;;;2.97;;
20611;SDS011;10465;42.686;23.364;2022-09-21T07:06:06;4.50;;;2.72;;
20611;SDS011;10465;42.686;23.364;2022-09-21T07:08:32;3.63;;;2.78;;
20611;SDS011;10465;42.686;23.364;2022-09-21T07:10:59;4.68;;;2.85;;
20611;SDS011;10465;42.686;23.364;2022-09-21T07:13:28;3.10;;;2.80;;
20611;SDS011;10465;42.686;23.364;2022-09-21T07:15:54;7.60;;;2.95;;
20611;SDS011;10465;42.686;23.364;2022-09-21T07:18:20;7.28;;;3.17;;
20611;SDS011;10465;42.686;23.364;2022-09-21T07:20:45;7.03;;;3.72;;
20611;SDS011;10465;42.686;23.364;2022-09-21T07:23:13;6.05;;;3.90;;
20611;SDS011;10465;42.686;23.364;2022-09-21T07:25:47;4.55;;;3.33;;
20611;SDS011;10465;42.686;23.364;2022-09-21T07:28:14;3.88;;;3.50;;
20611;SDS011;10465;42.686;23.364;2022-09-21T07:30:40;5.05;;;3.17;;
20611;SDS011;10465;42.686;23.364;2022-09-21T07:33:06;8.32;;;4.07;;
20611;SDS011;10465;42.686;23.364;2022-09-21T07:35:32;7.00;;;3.40;;
20611;SDS011;10465;42.686;23.364;2022-09-21T07:37:58;4.03;;;2.90;;
20611;SDS011;10465;42.686;23.364;2022-09-21T07:40:25;3.90;;;3.40;;
20611;SDS011;10465;42.686;23.364;2022-09-21T07:42:51;5.40;;;3.80;;
20611;SDS011;10465;42.686;23.364;2022-09-21T07:45:17;18.92;;;13.20;;
20611;SDS011;10465;42.686;23.364;2022-09-21T07:47:43;15.35;;;13.13;;
20611;SDS011;10465;42.686;23.364;2022-09-21T07:50:08;7.80;;;5.78;;
20611;SDS011;10465;42.686;23.364;2022-09-21T07:52:34;4.22;;;3.60;;
20611;SDS011;10465;42.686;23.364;2022-09-21T07:54:59;6.60;;;5.78;;
20611;SDS011;10465;42.686;23.364;2022-09-21T07:57:25;12.48;;;7.10;;
20611;SDS011;10465;42.686;23.364;2022-09-21T08:00:10;6.20;;;3.22;;
20611;SDS011;10465;42.686;23.364;2022-09-21T08:02:36;6.63;;;4.20;;
20611;SDS011;10465;42.686;23.364;2022-09-21T08:05:02;5.00;;;3.20;;
20611;SDS011;10465;42.686;23.364;2022-09-21T08:07:27;4.32;;;2.85;;
20611;SDS011;10465;42.686;23.364;2022-09-21T08:09:53;4.18;;;3.05;;
20611;SDS011;10465;42.686;23.364;2022-09-21T08:12:18;3.15;;;2.63;;
20611;SDS011;10465;42.686;23.364;2022-09-21T08:14:44;5.55;;;2.67;;
20611;SDS011;10465;42.686;23.364;2022-09-21T08:17:11;4.72;;;2.95;;
20611;SDS011;10465;42.686;23.364;2022-09-21T08:19:38;4.10;;;3.17;;
20611;SDS011;10465;42.686;23.364;2022-09-21T08:25:18;4.38;;;2.45;;
20611;SDS011;10465;42.686;23.364;2022-09-21T08:27:44;7.88;;;2.78;;
20611;SDS011;10465;42.686;23.364;2022-09-21T08:30:09;5.60;;;2.17;;
20611;SDS011;10465;42.686;23.364;2022-09-21T08:32:37;4.43;;;2.75;;
20611;SDS011;10465;42.686;23.364;2022-09-21T08:35:04;4.30;;;2.20;;
20611;SDS011;10465;42.686;23.364;2022-09-21T08:37:29;4.18;;;1.92;;
20611;SDS011;10465;42.686;23.364;2022-09-21T08:39:56;2.35;;;2.00;;
20611;SDS011;10465;42.686;23.364;2022-09-21T08:45:11;4.18;;;2.25;;
20611;SDS011;10465;42.686;23.364;2022-09-21T08:47:50;2.85;;;2.05;;
20611;SDS011;10465;42.686;23.364;2022-09-21T08:53:21;2.95;;;2.17;;
20611;SDS011;10465;42.686;23.364;2022-09-21T08:55:58;3.63;;;1.90;;
20611;SDS011;10465;42.686;23.364;2022-09-21T08:58:27;6.25;;;1.85;;
20611;SDS011;10465;42.686;23.364;2022-09-21T09:11:53;1.65;;;1.55;;
20611;SDS011;10465;42.686;23.364;2022-09-21T09:22:35;3.10;;;1.77;;
20611;SDS011;10465;42.686;23.364;2022-09-21T09:25:05;4.18;;;1.98;;
20611;SDS011;10465;42.686;23.364;2022-09-21T09:27:41;3.38;;;1.63;;
20611;SDS011;10465;42.686;23.364;2022-09-21T09:30:19;1.50;;;1.35;;
20611;SDS011;10465;42.686;23.364;2022-09-21T09:32:57;2.28;;;1.50;;
20611;SDS011;10465;42.686;23.364;2022-09-21T09:35:26;1.98;;;1.73;;
20611;SDS011;10465;42.686;23.364;2022-09-21T09:38:01;2.10;;;1.15;;
20611;SDS011;10465;42.686;23.364;2022-09-21T09:40:39;3.05;;;1.63;;
20611;SDS011;10465;42.686;23.364;2022-09-21T09:51:49;5.65;;;2.00;;
20611;SDS011;10465;42.686;23.364;2022-09-21T09:54:16;2.65;;;1.60;;
20611;SDS011;10465;42.686;23.364;2022-09-21T09:56:43;1.48;;;1.38;;
20611;SDS011;10465;42.686;23.364;2022-09-21T09:59:21;3.75;;;1.42;;
20611;SDS011;10465;42.686;23.364;2022-09-21T10:01:58;2.47;;;1.30;;
20611;SDS011;10465;42.686;23.364;2022-09-21T10:04:27;2.20;;;1.50;;
20611;SDS011;10465;42.686;23.364;2022-09-21T10:06:53;3.25;;;1.70;;
20611;SDS011;10465;42.686;23.364;2022-09-21T10:11:46;4.00;;;1.70;;
20611;SDS011;10465;42.686;23.364;2022-09-21T10:14:15;2.05;;;1.60;;
20611;SDS011;10465;42.686;23.364;2022-09-21T10:16:47;1.73;;;1.50;;
20611;SDS011;10465;42.686;23.364;2022-09-21T10:19:22;2.78;;;1.33;;
20611;SDS011;10465;42.686;23.364;2022-09-21T10:21:56;1.02;;;0.98;;
20611;SDS011;10465;42.686;23.364;2022-09-21T10:24:34;1.50;;;1.23;;
20611;SDS011;10465;42.686;23.364;2022-09-21T10:29:42;1.50;;;1.10;;
20611;SDS011;10465;42.686;23.364;2022-09-21T10:34:58;2.22;;;1.00;;
20611;SDS011;10465;42.686;23.364;2022-09-21T10:41:09;1.10;;;1.00;;
20611;SDS011;10465;42.686;23.364;2022-09-21T10:53:47;2.70;;;1.40;;
20611;SDS011;10465;42.686;23.364;2022-09-21T10:56:25;4.25;;;1.38;;
20611;SDS011;10465;42.686;23.364;2022-09-21T10:59:10;2.75;;;1.20;;
20611;SDS011;10465;42.686;23.364;2022-09-21T11:05:14;1.40;;;0.70;;
20611;SDS011;10465;42.686;23.364;2022-09-21T11:08:45;2.10;;;1.33;;
20611;SDS011;10465;42.686;23.364;2022-09-21T11:17:44;1.23;;;0.80;;
20611;SDS011;10465;42.686;23.364;2022-09-21T11:29:12;1.00;;;0.80;;
20611;SDS011;10465;42.686;23.364;2022-09-21T11:42:41;2.72;;;1.23;;
20611;SDS011;10465;42.686;23.364;2022-09-21T11:53:46;4.65;;;0.77;;
20611;SDS011;10465;42.686;23.364;2022-09-21T11:56:35;1.42;;;0.88;;
20611;SDS011;10465;42.686;23.364;2022-09-21T11:59:14;1.23;;;0.80;;
20611;SDS011;10465;42.686;23.364;2022-09-21T12:04:47;1.25;;;0.77;;
20611;SDS011;10465;42.686;23.364;2022-09-21T12:15:20;0.55;;;0.55;;
20611;SDS011;10465;42.686;23.364;2022-09-21T12:18:10;1.02;;;0.70;;
20611;SDS011;10465;42.686;23.364;2022-09-21T12:23:38;0.65;;;0.60;;
20611;SDS011;10465;42.686;23.364;2022-09-21T12:26:18;0.65;;;0.65;;
20611;SDS011;10465;42.686;23.364;2022-09-21T12:28:56;1.95;;;0.70;;
20611;SDS011;10465;42.686;23.364;2022-09-21T12:36:45;1.20;;;0.70;;
20611;SDS011;10465;42.686;23.364;2022-09-21T12:44:55;0.95;;;0.50;;
20611;SDS011;10465;42.686;23.364;2022-09-21T12:50:01;2.55;;;0.70;;
20611;SDS011;10465;42.686;23.364;2022-09-21T12:52:32;1.08;;;0.75;;
20611;SDS011;10465;42.686;23.364;2022-09-21T12:58:29;1.33;;;0.60;;
20611;SDS011;10465;42.686;23.364;2022-09-21T13:04:11;0.88;;;0.57;;
20611;SDS011;10465;42.686;23.364;2022-09-21T13:06:47;1.48;;;0.43;;
20611;SDS011;10465;42.686;23.364;2022-09-21T13:09:38;0.63;;;0.60;;
20611;SDS011;10465;42.686;23.364;2022-09-21T13:12:08;1.00;;;0.63;;
20611;SDS011;10465;42.686;23.364;2022-09-21T13:14:43;0.57;;;0.57;;
20611;SDS011;10465;42.686;23.364;2022-09-21T13:17:23;1.10;;;0.82;;
20611;SDS011;10465;42.686;23.364;2022-09-21T13:22:33;0.50;;;0.50;;
20611;SDS011;10465;42.686;23.364;2022-09-21T13:28:15;1.63;;;0.65;;
20611;SDS011;10465;42.686;23.364;2022-09-21T13:32:58;1.10;;;0.70;;
20611;SDS011;10465;42.686;23.364;2022-09-21T13:41:50;0.80;;;0.50;;
20611;SDS011;10465;42.686;23.364;2022-09-21T13:49:01;1.77;;;0.68;;
20611;SDS011;10465;42.686;23.364;2022-09-21T13:51:49;2.05;;;0.40;;
20611;SDS011;10465;42.686;23.364;2022-09-21T13:54:19;0.95;;;0.70;;
20611;SDS011;10465;42.686;23.364;2022-09-21T13:56:56;1.20;;;1.00;;
20611;SDS011;10465;42.686;23.364;2022-09-21T13:59:24;3.75;;;2.22;;
20611;SDS011;10465;42.686;23.364;2022-09-21T14:01:52;1.83;;;1.23;;
20611;SDS011;10465;42.686;23.364;2022-09-21T14:06:46;1.15;;;1.05;;
20611;SDS011;10465;42.686;23.364;2022-09-21T14:09:30;1.77;;;1.60;;
20611;SDS011;10465;42.686;23.364;2022-09-21T14:12:16;1.58;;;1.48;;
20611;SDS011;10465;42.686;23.364;2022-09-21T14:15:07;2.42;;;1.58;;
20611;SDS011;10465;42.686;23.364;2022-09-21T14:17:40;3.05;;;2.35;;
20611;SDS011;10465;42.686;23.364;2022-09-21T14:25:55;4.20;;;2.45;;
20611;SDS011;10465;42.686;23.364;2022-09-21T14:28:32;3.97;;;2.00;;
20611;SDS011;10465;42.686;23.364;2022-09-21T14:31:28;2.63;;;2.30;;
20611;SDS011;10465;42.686;23.364;2022-09-21T14:33:59;3.50;;;2.35;;
20611;SDS011;10465;42.686;23.364;2022-09-21T14:36:32;2.10;;;1.77;;
20611;SDS011;10465;42.686;23.364;2022-09-21T14:39:14;2.42;;;1.40;;
20611;SDS011;10465;42.686;23.364;2022-09-21T14:41:43;1.52;;;1.42;;
20611;SDS011;10465;42.686;23.364;2022-09-21T14:44:17;2.42;;;1.55;;
20611;SDS011;10465;42.686;23.364;2022-09-21T14:49:43;2.20;;;1.85;;
20611;SDS011;10465;42.686;23.364;2022-09-21T15:05:43;2.28;;;1.85;;
20611;SDS011;10465;42.686;23.364;2022-09-21T15:11:30;2.50;;;2.30;;
20611;SDS011;10465;42.686;23.364;2022-09-21T15:16:47;2.58;;;2.00;;
20611;SDS011;10465;42.686;23.364;2022-09-21T15:21:52;2.35;;;1.55;;
20611;SDS011;10465;42.686;23.364;2022-09-21T15:24:19;2.05;;;1.85;;
20611;SDS011;10465;42.686;23.364;2022-09-21T15:26:50;7.30;;;4.50;;
20611;SDS011;10465;42.686;23.364;2022-09-21T15:29:19;4.75;;;3.17;;
20611;SDS011;10465;42.686;23.364;2022-09-21T15:31:48;2.88;;;2.35;;
20611;SDS011;10465;42.686;23.364;2022-09-21T15:34:14;2.13;;;1.80;;
20611;SDS011;10465;42.686;23.364;2022-09-21T15:36:41;3.20;;;1.60;;
20611;SDS011;10465;42.686;23.364;2022-09-21T15:44:34;1.60;;;1.38;;
20611;SDS011;10465;42.686;23.364;2022-09-21T15:47:01;1.60;;;1.17;;
20611;SDS011;10465;42.686;23.364;2022-09-21T15:49:32;1.92;;;1.40;;
20611;SDS011;10465;42.686;23.364;2022-09-21T15:52:00;1.35;;;1.25;;
20611;SDS011;10465;42.686;23.364;2022-09-21T15:54:39;2.35;;;1.50;;
20611;SDS011;10465;42.686;23.364;2022-09-21T16:02:38;5.40;;;2.33;;
20611;SDS011;10465;42.686;23.364;2022-09-21T16:05:06;2.75;;;1.70;;
20611;SDS011;10465;42.686;23.364;2022-09-21T16:07:38;1.95;;;1.58;;
20611;SDS011;10465;42.686;23.364;2022-09-21T16:12:56;1.73;;;1.60;;
20611;SDS011;10465;42.686;23.364;2022-09-21T16:15:58;3.08;;;1.67;;
20611;SDS011;10465;42.686;23.364;2022-09-21T16:18:29;2.80;;;2.15;;
20611;SDS011;10465;42.686;23.364;2022-09-21T16:21:13;2.10;;;1.83;;
20611;SDS011;10465;42.686;23.364;2022-09-21T16:23:43;5.40;;;1.65;;
20611;SDS011;10465;42.686;23.364;2022-09-21T16:26:16;1.85;;;1.60;;
20611;SDS011;10465;42.686;23.364;2022-09-21T16:31:48;2.03;;;1.85;;
20611;SDS011;10465;42.686;23.364;2022-09-21T16:34:20;3.17;;;1.80;;
20611;SDS011;10465;42.686;23.364;2022-09-21T16:36:53;2.33;;;1.88;;
20611;SDS011;10465;42.686;23.364;2022-09-21T16:39:19;3.55;;;2.35;;
20611;SDS011;10465;42.686;23.364;2022-09-21T16:44:17;3.95;;;3.20;;
20611;SDS011;10465;42.686;23.364;2022-09-21T16:46:52;3.42;;;2.75;;
20611;SDS011;10465;42.686;23.364;2022-09-21T16:49:21;5.20;;;3.53;;
20611;SDS011;10465;42.686;23.364;2022-09-21T16:51:47;6.93;;;3.42;;
20611;SDS011;10465;42.686;23.364;2022-09-21T16:54:17;7.05;;;3.85;;
20611;SDS011;10465;42.686;23.364;2022-09-21T16:56:44;7.03;;;3.85;;
20611;SDS011;10465;42.686;23.364;2022-09-21T16:59:14;5.10;;;3.58;;
20611;SDS011;10465;42.686;23.364;2022-09-21T17:01:43;6.28;;;4.03;;
20611;SDS011;10465;42.686;23.364;2022-09-21T17:04:09;5.43;;;3.80;;
20611;SDS011;10465;42.686;23.364;2022-09-21T17:06:37;3.53;;;3.17;;
20611;SDS011;10465;42.686;23.364;2022-09-21T17:09:25;7.28;;;3.60;;
20611;SDS011;10465;42.686;23.364;2022-09-21T17:12:00;7.13;;;4.32;;
20611;SDS011;10465;42.686;23.364;2022-09-21T17:14:31;5.10;;;3.95;;
20611;SDS011;10465;42.686;23.364;2022-09-21T17:16:59;6.95;;;3.92;;
20611;SDS011;10465;42.686;23.364;2022-09-21T17:19:32;5.28;;;4.00;;
20611;SDS011;10465;42.686;23.364;2022-09-21T17:22:00;5.80;;;3.60;;
20611;SDS011;10465;42.686;23.364;2022-09-21T17:24:27;4.95;;;3.80;;
20611;SDS011;10465;42.686;23.364;2022-09-21T17:26:52;4.15;;;2.95;;
20611;SDS011;10465;42.686;23.364;2022-09-21T17:29:22;4.38;;;3.03;;
20611;SDS011;10465;42.686;23.364;2022-09-21T17:31:50;6.90;;;4.07;;
20611;SDS011;10465;42.686;23.364;2022-09-21T17:34:23;6.70;;;4.70;;
20611;SDS011;10465;42.686;23.364;2022-09-21T17:36:51;7.47;;;4.72;;
20611;SDS011;10465;42.686;23.364;2022-09-21T17:39:17;7.47;;;4.82;;
20611;SDS011;10465;42.686;23.364;2022-09-21T17:47:18;9.05;;;7.10;;
20611;SDS011;10465;42.686;23.364;2022-09-21T17:49:49;6.55;;;5.40;;
20611;SDS011;10465;42.686;23.364;2022-09-21T17:52:16;6.28;;;4.82;;
20611;SDS011;10465;42.686;23.364;2022-09-21T17:55:02;5.32;;;4.82;;
20611;SDS011;10465;42.686;23.364;2022-09-21T18:00:48;6.60;;;4.78;;
20611;SDS011;10465;42.686;23.364;2022-09-21T18:03:26;6.97;;;4.93;;
20611;SDS011;10465;42.686;23.364;2022-09-21T18:05:53;5.70;;;5.10;;
20611;SDS011;10465;42.686;23.364;2022-09-21T18:08:23;5.88;;;4.80;;
20611;SDS011;10465;42.686;23.364;2022-09-21T18:11:00;6.43;;;4.97;;
20611;SDS011;10465;42.686;23.364;2022-09-21T18:13:33;6.22;;;5.10;;
20611;SDS011;10465;42.686;23.364;2022-09-21T18:19:28;5.85;;;5.20;;
20611;SDS011;10465;42.686;23.364;2022-09-21T18:21:51;6.43;;;5.18;;
20611;SDS011;10465;42.686;23.364;2022-09-21T18:24:27;5.85;;;4.97;;
20611;SDS011;10465;42.686;23.364;2022-09-21T18:26:55;6.68;;;5.38;;
20611;SDS011;10465;42.686;23.364;2022-09-21T18:40:47;6.03;;;5.30;;
20611;SDS011;10465;42.686;23.364;2022-09-21T18:43:30;9.32;;;6.18;;
20611;SDS011;10465;42.686;23.364;2022-09-21T18:46:14;8.65;;;5.72;;
20611;SDS011;10465;42.686;23.364;2022-09-21T18:48:50;7.15;;;5.38;;
20611;SDS011;10465;42.686;23.364;2022-09-21T18:52:00;6.43;;;5.53;;
20611;SDS011;10465;42.686;23.364;2022-09-21T18:54:55;9.38;;;5.75;;
20611;SDS011;10465;42.686;23.364;2022-09-21T18:57:56;7.13;;;5.65;;
20611;SDS011;10465;42.686;23.364;2022-09-21T19:00:23;7.53;;;5.68;;
20611;SDS011;10465;42.686;23.364;2022-09-21T19:02:55;7.78;;;5.80;;
20611;SDS011;10465;42.686;23.364;2022-09-21T19:05:21;8.02;;;5.97;;
20611;SDS011;10465;42.686;23.364;2022-09-21T19:07:50;7.13;;;5.43;;
20611;SDS011;10465;42.686;23.364;2022-09-21T19:12:58;8.70;;;6.63;;
20611;SDS011;10465;42.686;23.364;2022-09-21T19:15:38;9.60;;;6.85;;
20611;SDS011;10465;42.686;23.364;2022-09-21T19:18:22;8.30;;;6.15;;
20611;SDS011;10465;42.686;23.364;2022-09-21T19:20:53;8.13;;;5.70;;
20611;SDS011;10465;42.686;23.364;2022-09-21T19:25:52;9.18;;;7.10;;